Time;durP1;ratioP1;P1;durP2;ratioP2;P2;SDS_P1;SDS_P2;PMS_P1;PMS_P2;Temp;Humidity;BMP_temperature;BMP_pressure;BME280_temperature;BME280_humidity;BME280_pressure;Samples;Min_cycle;Max_cycle;Signal;HPM_P1;HPM_P2
2022/02/27 00:01:42;;;;;;;4.47;2.40;;;;;;;-2.83;100.00;103017.06;5023215;28;20081;-81
2022/02/27 00:04:08;;;;;;;3.93;2.00;;;;;;;-2.81;100.00;103022.34;5011590;28;20042;-80
2022/02/27 00:06:35;;;;;;;4.57;2.20;;;;;;;-2.78;100.00;103017.38;5001749;28;20106;-80
2022/02/27 00:09:02;;;;;;;4.30;2.80;;;;;;;-2.78;100.00;103022.56;5037667;23;20047;-84
2022/02/27 00:11:28;;;;;;;3.47;2.37;;;;;;;-2.73;100.00;103023.81;4960486;28;20572;-85
2022/02/27 00:13:55;;;;;;;4.97;2.80;;;;;;;-2.79;100.00;103020.75;4970644;28;20047;-83
2022/02/27 00:16:22;;;;;;;5.50;2.97;;;;;;;-2.69;100.00;103023.22;4946153;28;20049;-85
2022/02/27 00:18:48;;;;;;;4.27;2.60;;;;;;;-2.72;100.00;103028.19;4944445;28;20058;-86
2022/02/27 00:21:15;;;;;;;6.23;2.63;;;;;;;-2.80;100.00;103025.03;4971702;28;20066;-84
2022/02/27 00:23:42;;;;;;;5.63;2.33;;;;;;;-2.85;100.00;103027.31;4969729;28;20125;-83
2022/02/27 00:26:08;;;;;;;4.03;2.43;;;;;;;-2.91;100.00;103025.97;4938837;28;20089;-84
2022/02/27 00:28:35;;;;;;;4.63;3.53;;;;;;;-2.84;100.00;103030.81;4969858;28;20042;-84
2022/02/27 00:31:08;;;;;;;4.73;2.63;;;;;;;-2.87;100.00;103034.03;4952943;28;20510;-82
2022/02/27 00:33:34;;;;;;;5.20;2.63;;;;;;;-2.89;100.00;103030.47;4970141;28;20038;-84
2022/02/27 00:36:01;;;;;;;4.47;3.00;;;;;;;-2.97;100.00;103034.19;4970339;28;20050;-84
2022/02/27 00:38:28;;;;;;;5.93;2.60;;;;;;;-2.97;100.00;103031.59;4938768;28;20039;-84
2022/02/27 00:40:55;;;;;;;5.53;2.20;;;;;;;-2.97;100.00;103034.19;4937462;28;20489;-84
2022/02/27 00:43:21;;;;;;;4.03;2.90;;;;;;;-3.03;100.00;103031.16;4954446;28;20043;-83
2022/02/27 00:45:48;;;;;;;5.27;2.67;;;;;;;-3.08;100.00;103036.78;4952948;28;20103;-84
2022/02/27 00:48:14;;;;;;;4.43;2.73;;;;;;;-3.11;100.00;103032.31;4970420;28;20047;-84
2022/02/27 00:50:41;;;;;;;3.57;2.33;;;;;;;-3.16;100.00;103038.81;4966700;28;20047;-85
2022/02/27 00:53:13;;;;;;;5.77;2.70;;;;;;;-3.20;100.00;103029.03;4953931;28;20394;-84
2022/02/27 00:55:41;;;;;;;4.23;2.50;;;;;;;-3.21;100.00;103029.81;4970446;28;20055;-84
2022/02/27 00:58:07;;;;;;;5.07;2.60;;;;;;;-3.22;100.00;103031.50;4970070;28;20054;-86
2022/02/27 01:00:34;;;;;;;4.87;2.63;;;;;;;-3.17;100.00;103037.03;4967141;28;20521;-85
2022/02/27 01:03:01;;;;;;;3.77;2.60;;;;;;;-3.09;100.00;103030.72;4954859;28;20080;-86
2022/02/27 01:05:29;;;;;;;6.07;2.80;;;;;;;-3.03;100.00;103018.22;4954376;28;20134;-84
2022/02/27 01:07:55;;;;;;;5.60;2.80;;;;;;;-3.03;100.00;103019.91;4971358;28;20541;-86
2022/02/27 01:10:22;;;;;;;5.60;3.50;;;;;;;-3.13;100.00;103028.69;4941920;28;20103;-86
2022/02/27 01:12:49;;;;;;;5.37;3.10;;;;;;;-3.11;100.00;103024.53;4938315;29;20047;-84
2022/02/27 01:15:16;;;;;;;4.30;2.40;;;;;;;-3.18;100.00;103019.72;4948527;28;20089;-84
2022/02/27 01:17:42;;;;;;;4.17;2.43;;;;;;;-3.07;100.00;103015.31;4973359;28;20039;-84
2022/02/27 01:20:10;;;;;;;6.00;2.80;;;;;;;-3.19;100.00;103016.22;4973544;28;20057;-84
2022/02/27 01:22:37;;;;;;;3.67;2.37;;;;;;;-3.30;100.00;103021.38;4973084;28;20039;-83
2022/02/27 01:25:05;;;;;;;6.97;2.83;;;;;;;-3.34;100.00;103012.53;4970644;28;20047;-83
2022/02/27 01:27:32;;;;;;;4.37;2.30;;;;;;;-3.38;100.00;103007.91;4941563;28;20504;-84
2022/02/27 01:29:59;;;;;;;3.17;2.37;;;;;;;-3.37;100.00;103012.28;4973456;28;20394;-84
2022/02/27 01:32:26;;;;;;;5.37;3.03;;;;;;;-3.37;100.00;103003.63;4973002;28;20101;-84
2022/02/27 01:34:53;;;;;;;4.30;2.63;;;;;;;-3.42;100.00;103011.06;4949659;28;20501;-83
2022/02/27 01:37:20;;;;;;;4.97;2.43;;;;;;;-3.43;100.00;103009.25;4974866;28;20068;-84
2022/02/27 01:39:46;;;;;;;6.63;2.60;;;;;;;-3.46;100.00;103006.44;4963449;28;20524;-82
2022/02/27 01:42:15;;;;;;;5.90;2.63;;;;;;;-3.47;100.00;103007.22;4942759;28;20058;-83
2022/02/27 01:44:42;;;;;;;5.03;3.20;;;;;;;-3.45;100.00;103009.16;4973350;28;20055;-83
2022/02/27 01:47:11;;;;;;;5.37;3.30;;;;;;;-3.46;100.00;103011.59;4956478;28;20047;-84
2022/02/27 01:49:39;;;;;;;5.03;3.13;;;;;;;-3.50;100.00;103000.16;4957465;28;20062;-83
2022/02/27 01:52:06;;;;;;;4.57;3.20;;;;;;;-3.43;100.00;103002.41;4952791;28;20094;-84
2022/02/27 01:54:34;;;;;;;10.83;3.83;;;;;;;-3.45;100.00;103004.00;4967000;28;20046;-84
2022/02/27 01:57:01;;;;;;;4.70;3.20;;;;;;;-3.52;100.00;103000.84;4970258;28;20047;-83
2022/02/27 01:59:27;;;;;;;5.73;3.00;;;;;;;-3.55;100.00;103006.66;4956471;28;20043;-84
2022/02/27 02:01:54;;;;;;;5.97;3.40;;;;;;;-3.57;100.00;103002.16;4940221;28;20050;-82
2022/02/27 02:04:22;;;;;;;7.93;3.77;;;;;;;-3.62;100.00;103009.56;4940106;29;20039;-83
2022/02/27 02:06:48;;;;;;;5.60;3.60;;;;;;;-3.65;100.00;103008.44;4972226;28;20050;-83
2022/02/27 02:09:15;;;;;;;7.47;3.90;;;;;;;-3.68;100.00;103011.72;4963063;28;20074;-84
2022/02/27 02:11:44;;;;;;;8.63;3.77;;;;;;;-3.69;100.00;103007.34;4956066;28;20414;-83
2022/02/27 02:14:11;;;;;;;5.90;3.30;;;;;;;-3.68;100.00;103011.72;4956807;28;20446;-83
2022/02/27 02:16:49;;;;;;;5.50;3.33;;;;;;;-3.65;100.00;103005.88;4956432;28;20525;-84
2022/02/27 02:19:17;;;;;;;7.33;3.63;;;;;;;-3.59;100.00;103007.22;4986413;28;20130;-83
2022/02/27 02:21:46;;;;;;;5.50;3.57;;;;;;;-3.63;100.00;103005.19;4936723;28;20147;-83
2022/02/27 02:24:13;;;;;;;7.40;3.60;;;;;;;-3.62;100.00;103000.91;4943254;28;20038;-83
2022/02/27 02:26:43;;;;;;;6.93;3.63;;;;;;;-3.55;100.00;103006.66;4972969;28;20054;-84
2022/02/27 02:29:11;;;;;;;7.63;3.77;;;;;;;-3.56;100.00;103004.84;4956333;28;20089;-82
2022/02/27 02:31:39;;;;;;;6.53;4.13;;;;;;;-3.62;100.00;103009.56;4939979;28;20050;-83
2022/02/27 02:34:07;;;;;;;7.53;4.30;;;;;;;-3.66;100.00;103009.22;4969109;28;20039;-82
2022/02/27 02:36:35;;;;;;;9.47;3.83;;;;;;;-3.67;100.00;103015.19;4952491;28;20074;-82
2022/02/27 02:39:04;;;;;;;7.87;3.50;;;;;;;-3.77;100.00;103013.59;4960670;28;20051;-81
2022/02/27 02:41:31;;;;;;;9.10;3.50;;;;;;;-3.78;100.00;103017.88;4970654;28;20042;-83
2022/02/27 02:43:58;;;;;;;7.67;3.80;;;;;;;-3.67;100.00;103021.25;4940384;28;20371;-83
2022/02/27 02:46:24;;;;;;;6.77;4.47;;;;;;;-3.66;100.00;103022.16;4955822;28;20054;-84
2022/02/27 02:48:51;;;;;;;7.57;3.33;;;;;;;-3.71;100.00;103019.22;4953079;28;20486;-82
2022/02/27 02:51:18;;;;;;;6.50;3.50;;;;;;;-3.78;100.00;103025.63;4963851;28;20058;-83
2022/02/27 02:53:45;;;;;;;10.13;3.73;;;;;;;-3.78;100.00;103022.16;4940330;28;20090;-84
2022/02/27 02:56:12;;;;;;;8.10;3.63;;;;;;;-3.86;100.00;103024.16;4972284;28;20055;-83
2022/02/27 02:58:40;;;;;;;7.37;3.40;;;;;;;-3.85;100.00;103030.22;4940373;28;20058;-84
2022/02/27 03:01:08;;;;;;;7.87;4.00;;;;;;;-3.87;100.00;103022.31;4954760;28;20082;-83
2022/02/27 03:03:39;;;;;;;8.00;3.97;;;;;;;-3.84;100.00;103034.59;4968354;28;20074;-82
2022/02/27 03:06:10;;;;;;;8.77;3.90;;;;;;;-3.84;100.00;103037.16;4941399;28;20098;-81
2022/02/27 03:08:38;;;;;;;6.93;3.80;;;;;;;-3.74;100.00;103034.50;4961164;28;20043;-82
2022/02/27 03:11:04;;;;;;;5.40;3.40;;;;;;;-3.72;100.00;103035.50;4945172;28;20043;-83
2022/02/27 03:13:31;;;;;;;8.07;3.40;;;;;;;-3.69;100.00;103036.66;4971071;28;20097;-82
2022/02/27 03:15:58;;;;;;;5.90;3.60;;;;;;;-3.62;100.00;103034.50;4955054;28;20050;-82
2022/02/27 03:18:24;;;;;;;6.13;3.87;;;;;;;-3.58;100.00;103041.72;4983162;28;20046;-82
2022/02/27 03:20:51;;;;;;;5.57;3.70;;;;;;;-3.51;100.00;103041.38;4950928;28;20042;-83
2022/02/27 03:23:18;;;;;;;12.33;4.30;;;;;;;-3.49;100.00;103043.28;4946618;28;20050;-82
2022/02/27 03:25:51;;;;;;;6.57;3.47;;;;;;;-3.46;100.00;103037.44;4940198;28;20050;-82
2022/02/27 03:28:17;;;;;;;5.53;3.77;;;;;;;-3.43;100.00;103033.41;4961868;28;20043;-83
2022/02/27 03:30:44;;;;;;;7.17;4.07;;;;;;;-3.28;100.00;103032.72;4935095;28;20047;-82
2022/02/27 03:33:11;;;;;;;7.20;4.30;;;;;;;-3.27;100.00;103034.56;4952126;28;20050;-81
2022/02/27 03:35:38;;;;;;;6.20;3.23;;;;;;;-3.29;100.00;103042.16;4951311;28;20031;-83
2022/02/27 03:38:05;;;;;;;5.63;3.30;;;;;;;-3.31;100.00;103033.41;4950751;28;20051;-82
2022/02/27 03:40:31;;;;;;;5.23;3.33;;;;;;;-3.20;100.00;103042.84;4952144;28;20529;-82
2022/02/27 03:42:58;;;;;;;6.77;3.27;;;;;;;-2.98;100.00;103045.31;4952542;28;20047;-82
2022/02/27 03:45:26;;;;;;;9.97;3.83;;;;;;;-2.99;100.00;103045.22;4933854;28;20961;-83
2022/02/27 03:47:54;;;;;;;6.47;3.60;;;;;;;-3.12;100.00;103046.00;4932878;28;20055;-82
2022/02/27 03:50:21;;;;;;;4.87;3.50;;;;;;;-3.11;100.00;103042.66;4951852;28;20066;-83
2022/02/27 03:52:49;;;;;;;8.40;4.37;;;;;;;-3.03;100.00;103049.25;4967497;28;20627;-84
2022/02/27 03:55:17;;;;;;;8.17;3.80;;;;;;;-2.99;100.00;103052.97;4952795;28;20460;-83
2022/02/27 03:57:44;;;;;;;11.37;3.90;;;;;;;-2.91;100.00;103062.19;4935708;28;20062;-83
2022/02/27 04:00:15;;;;;;;7.17;3.90;;;;;;;-2.88;100.00;103057.22;4951169;28;20049;-84
2022/02/27 04:02:45;;;;;;;13.53;5.43;;;;;;;-2.74;100.00;103040.13;4936789;28;20054;-82
2022/02/27 04:05:17;;;;;;;8.57;4.13;;;;;;;-2.79;100.00;103047.53;4936782;28;20139;-84
2022/02/27 04:07:44;;;;;;;7.20;4.03;;;;;;;-2.78;100.00;103056.19;4947752;28;20038;-83
2022/02/27 04:10:12;;;;;;;8.43;4.00;;;;;;;-2.65;100.00;103056.28;4952193;28;20178;-85
2022/02/27 04:12:40;;;;;;;8.10;3.80;;;;;;;-2.67;100.00;103051.03;4968514;28;20047;-84
2022/02/27 04:15:07;;;;;;;10.27;4.33;;;;;;;-2.46;100.00;103064.56;4936757;28;20048;-84
2022/02/27 04:17:34;;;;;;;13.93;7.20;;;;;;;-2.37;100.00;103060.03;4934551;28;20142;-84
2022/02/27 04:20:00;;;;;;;14.87;8.10;;;;;;;-2.31;100.00;103059.56;4936913;28;20039;-82
2022/02/27 04:22:28;;;;;;;14.33;7.50;;;;;;;-2.30;100.00;103066.53;4983909;28;20046;-82
2022/02/27 04:24:55;;;;;;;16.63;7.67;;;;;;;-2.09;100.00;103062.88;4968155;28;20041;-83
2022/02/27 04:27:25;;;;;;;19.03;8.20;;;;;;;-2.09;100.00;103069.75;4962551;28;20043;-83
2022/02/27 04:29:51;;;;;;;14.53;7.60;;;;;;;-2.15;100.00;103075.38;4937060;28;20558;-83
2022/02/27 04:32:19;;;;;;;19.27;8.73;;;;;;;-2.17;100.00;103074.41;4951568;28;20105;-83
2022/02/27 04:34:45;;;;;;;15.87;8.70;;;;;;;-2.16;100.00;103075.28;4967392;28;20039;-83
2022/02/27 04:37:12;;;;;;;16.93;7.53;;;;;;;-2.12;100.00;103069.53;4948846;28;20043;-83
2022/02/27 04:39:41;;;;;;;17.20;8.47;;;;;;;-2.10;100.00;103067.91;4969042;28;20054;-82
2022/02/27 04:42:15;;;;;;;15.60;8.87;;;;;;;-2.07;100.00;103062.97;4985222;28;20130;-84
2022/02/27 04:44:41;;;;;;;17.20;8.20;;;;;;;-2.06;100.00;103064.78;4956310;28;20057;-83
2022/02/27 04:47:11;;;;;;;15.90;8.70;;;;;;;-2.02;100.00;103070.28;4953406;28;20079;-84
2022/02/27 04:49:38;;;;;;;18.90;8.27;;;;;;;-1.88;100.00;103070.31;4958771;28;20047;-84
2022/02/27 04:52:05;;;;;;;18.23;7.73;;;;;;;-2.03;100.00;103064.97;4971672;28;20553;-84
2022/02/27 04:54:35;;;;;;;19.20;8.77;;;;;;;-1.91;100.00;103068.41;4941633;28;20039;-83
2022/02/27 04:57:05;;;;;;;18.57;8.90;;;;;;;-1.86;100.00;103061.84;4941223;28;20081;-83
2022/02/27 04:59:34;;;;;;;17.70;8.70;;;;;;;-1.89;100.00;103068.53;4956385;28;20053;-83
2022/02/27 05:02:01;;;;;;;16.00;8.70;;;;;;;-1.85;100.00;103065.31;4953833;28;20129;-83
2022/02/27 05:04:34;;;;;;;15.67;8.40;;;;;;;-1.82;100.00;103070.75;4956873;28;20097;-83
2022/02/27 05:07:02;;;;;;;16.80;8.23;;;;;;;-1.86;100.00;103072.22;4943712;28;20053;-82
2022/02/27 05:09:30;;;;;;;16.20;7.57;;;;;;;-1.97;100.00;103070.59;4956860;28;20101;-82
2022/02/27 05:11:57;;;;;;;16.97;7.93;;;;;;;-1.93;100.00;103070.03;4941777;28;20043;-82
2022/02/27 05:14:24;;;;;;;14.37;7.83;;;;;;;-1.99;100.00;103078.25;4979660;28;20445;-82
2022/02/27 05:16:51;;;;;;;18.33;8.00;;;;;;;-1.82;100.00;103071.63;4939820;29;20059;-82
2022/02/27 05:19:18;;;;;;;19.50;8.23;;;;;;;-1.84;100.00;103072.34;4965445;28;20055;-81
2022/02/27 05:21:44;;;;;;;19.00;8.37;;;;;;;-1.85;100.00;103060.16;4972853;28;20035;-82
2022/02/27 05:24:11;;;;;;;13.37;7.80;;;;;;;-1.90;100.00;103074.50;4973955;28;20053;-82
2022/02/27 05:26:38;;;;;;;13.23;7.50;;;;;;;-1.86;100.00;103082.56;4958128;28;20427;-82
2022/02/27 05:29:05;;;;;;;14.50;7.50;;;;;;;-2.01;100.00;103071.19;4955369;28;20633;-82
2022/02/27 05:31:32;;;;;;;18.50;8.90;;;;;;;-1.89;100.00;103077.19;4957606;28;20047;-80
2022/02/27 05:33:59;;;;;;;17.20;8.17;;;;;;;-1.98;100.00;103073.97;4945244;28;20074;-82
2022/02/27 05:36:26;;;;;;;16.03;7.53;;;;;;;-1.85;100.00;103074.03;4958169;28;20035;-82
2022/02/27 05:38:52;;;;;;;15.13;7.60;;;;;;;-1.74;100.00;103082.53;4956946;28;20050;-83
2022/02/27 05:41:20;;;;;;;16.63;8.50;;;;;;;-1.86;100.00;103086.84;4941245;28;20053;-82
2022/02/27 05:43:57;;;;;;;;;;;;;;;-1.89;100.00;103091.84;4960126;28;20070;-81
2022/02/27 05:46:25;;;;;;;16.30;9.20;;;;;;;-1.84;100.00;103081.00;4954305;28;20269;-82
2022/02/27 05:48:52;;;;;;;17.80;8.07;;;;;;;-1.75;100.00;103092.00;4978389;28;20152;-81
2022/02/27 05:51:19;;;;;;;18.70;8.67;;;;;;;-1.74;100.00;103093.78;4946142;28;20096;-82
2022/02/27 05:53:46;;;;;;;17.40;9.70;;;;;;;-1.81;100.00;103109.72;4939307;28;20149;-80
2022/02/27 05:56:14;;;;;;;17.50;8.93;;;;;;;-1.74;100.00;103098.97;4988686;28;20050;-81
2022/02/27 05:58:40;;;;;;;17.17;9.03;;;;;;;-1.74;100.00;103106.75;4953267;28;20364;-81
2022/02/27 06:01:07;;;;;;;16.43;8.47;;;;;;;-1.69;100.00;103104.44;4955683;28;20043;-81
2022/02/27 06:03:34;;;;;;;16.77;8.30;;;;;;;-1.78;100.00;103096.94;4987568;28;20039;-82
2022/02/27 06:06:01;;;;;;;17.27;9.17;;;;;;;-1.75;100.00;103096.28;4955853;28;20090;-82
2022/02/27 06:08:28;;;;;;;20.57;10.10;;;;;;;-1.65;100.00;103098.69;4956142;28;20077;-83
2022/02/27 06:10:55;;;;;;;18.10;9.00;;;;;;;-1.63;100.00;103104.88;4970377;28;20053;-83
2022/02/27 06:13:21;;;;;;;17.13;8.90;;;;;;;-1.60;100.00;103101.59;4950783;28;20043;-82
2022/02/27 06:15:48;;;;;;;15.63;8.83;;;;;;;-1.57;100.00;103105.31;4954002;28;20133;-81
2022/02/27 06:18:15;;;;;;;17.23;8.97;;;;;;;-1.53;100.00;103109.00;4939886;28;20057;-81
2022/02/27 06:20:42;;;;;;;15.93;8.10;;;;;;;-1.45;100.00;103110.41;4968537;28;20066;-82
2022/02/27 06:23:10;;;;;;;19.87;9.53;;;;;;;-1.46;100.00;103104.31;4970056;28;20049;-81
2022/02/27 06:25:38;;;;;;;23.87;10.03;;;;;;;-1.51;100.00;103113.50;4955575;28;20043;-82
2022/02/27 06:28:05;;;;;;;17.93;9.50;;;;;;;-1.49;100.00;103113.59;4937557;28;20528;-81
2022/02/27 06:30:34;;;;;;;18.90;9.90;;;;;;;-1.22;100.00;103111.97;4939071;28;20097;-81
2022/02/27 06:33:02;;;;;;;16.37;9.03;;;;;;;-1.32;100.00;103110.44;4936702;28;20133;-82
2022/02/27 06:35:29;;;;;;;20.37;10.17;;;;;;;-1.25;100.00;103116.94;4951149;28;20043;-82
2022/02/27 06:37:55;;;;;;;14.57;8.80;;;;;;;-1.21;100.00;103119.84;4954195;28;20043;-82
2022/02/27 06:40:22;;;;;;;16.17;8.97;;;;;;;-1.30;100.00;103114.03;4950199;28;20043;-83
2022/02/27 06:42:52;;;;;;;18.20;8.47;;;;;;;-1.23;100.00;103116.25;4954841;28;20042;-82
2022/02/27 06:45:19;;;;;;;18.43;8.57;;;;;;;-1.07;100.00;103115.56;4952901;28;20042;-82
2022/02/27 06:47:52;;;;;;;17.73;8.40;;;;;;;-1.08;100.00;103118.06;4939877;28;20038;-82
2022/02/27 06:50:23;;;;;;;16.83;9.20;;;;;;;-1.00;100.00;103122.06;4970818;28;20039;-82
2022/02/27 06:52:51;;;;;;;18.97;8.90;;;;;;;-0.90;100.00;103121.88;4939626;28;20054;-82
2022/02/27 06:55:19;;;;;;;18.37;9.73;;;;;;;-0.80;100.00;103121.66;4970131;28;20051;-83
2022/02/27 06:57:47;;;;;;;15.97;9.17;;;;;;;-0.84;100.00;103119.69;4938485;28;20069;-85
2022/02/27 07:00:18;;;;;;;20.53;10.17;;;;;;;-0.87;100.00;103127.25;4938253;28;20066;-82
2022/02/27 07:02:46;;;;;;;26.47;11.07;;;;;;;-0.87;100.00;103137.63;4941211;28;20166;-83
2022/02/27 07:05:13;;;;;;;22.17;10.17;;;;;;;-0.73;100.00;103131.66;4971044;28;20061;-83
2022/02/27 07:07:40;;;;;;;36.87;17.50;;;;;;;-0.68;100.00;103132.81;4959715;28;20047;-82
2022/02/27 07:10:07;;;;;;;23.03;10.47;;;;;;;-0.65;100.00;103135.66;4971835;28;20042;-82
2022/02/27 07:12:35;;;;;;;17.33;8.90;;;;;;;-0.76;100.00;103136.63;4942270;28;20051;-81
2022/02/27 07:15:07;;;;;;;19.57;10.07;;;;;;;-0.58;100.00;103139.53;4954244;28;20054;-81
2022/02/27 07:17:42;;;;;;;16.30;9.53;;;;;;;-0.73;100.00;103136.84;4960211;28;20062;-82
2022/02/27 07:20:12;;;;;;;18.60;9.50;;;;;;;-0.70;100.00;103142.22;4956715;28;20477;-81
2022/02/27 07:22:39;;;;;;;20.13;10.10;;;;;;;-0.61;100.00;103145.41;4943035;28;20050;-81
2022/02/27 07:25:07;;;;;;;22.03;11.73;;;;;;;-0.52;100.00;103145.09;4961644;28;20050;-81
2022/02/27 07:27:36;;;;;;;18.90;9.87;;;;;;;-0.47;100.00;103151.50;4943200;28;20093;-80
2022/02/27 07:30:05;;;;;;;18.43;8.80;;;;;;;-0.41;100.00;103145.81;4961321;28;20042;-80
2022/02/27 07:32:31;;;;;;;18.63;9.37;;;;;;;-0.48;100.00;103143.63;4962204;28;20039;-82
2022/02/27 07:34:59;;;;;;;21.27;10.43;;;;;;;-0.53;100.00;103150.19;4971420;28;20047;-81
2022/02/27 07:37:25;;;;;;;22.00;11.93;;;;;;;-0.43;100.00;103150.00;4957258;28;20042;-82
2022/02/27 07:39:52;;;;;;;17.97;10.77;;;;;;;-0.33;100.00;103144.59;4961798;28;20516;-82
2022/02/27 07:42:23;;;;;;;17.33;9.53;;;;;;;-0.32;100.00;103149.91;4983634;28;20073;-81
2022/02/27 07:44:55;;;;;;;23.77;9.93;;;;;;;-0.28;100.00;103143.19;4955007;28;20047;-81
2022/02/27 07:47:23;;;;;;;22.03;10.27;;;;;;;-0.17;100.00;103147.38;4940411;28;20101;-81
2022/02/27 07:49:50;;;;;;;18.17;8.90;;;;;;;-0.15;100.00;103152.66;4968075;28;20047;-81
2022/02/27 07:52:17;;;;;;;20.83;10.20;;;;;;;-0.23;100.00;103146.97;4955201;28;20208;-82
2022/02/27 07:54:44;;;;;;;17.47;9.40;;;;;;;-0.17;100.00;103147.38;4968057;28;20426;-80
2022/02/27 07:57:11;;;;;;;19.50;10.67;;;;;;;-0.11;100.00;103147.75;4973129;28;20050;-82
2022/02/27 07:59:38;;;;;;;21.73;9.33;;;;;;;-0.23;100.00;103149.56;4937726;28;20073;-83
2022/02/27 08:02:04;;;;;;;16.87;8.50;;;;;;;-0.16;100.00;103149.16;4954009;28;20117;-83
2022/02/27 08:04:31;;;;;;;17.90;9.97;;;;;;;-0.02;100.00;103144.81;4954062;28;20039;-83
2022/02/27 08:06:59;;;;;;;18.57;8.97;;;;;;;-0.04;100.00;103152.53;4936928;28;20098;-81
2022/02/27 08:09:25;;;;;;;14.93;8.63;;;;;;;0.03;100.00;103152.91;4971606;28;20043;-83
2022/02/27 08:11:52;;;;;;;19.73;9.50;;;;;;;0.12;100.00;103159.56;4968142;28;20468;-84
2022/02/27 08:14:18;;;;;;;20.80;9.57;;;;;;;0.17;100.00;103152.97;4930827;28;20109;-81
2022/02/27 08:16:45;;;;;;;20.73;10.83;;;;;;;0.21;100.00;103157.53;4939149;28;20047;-82
2022/02/27 08:19:12;;;;;;;23.37;11.03;;;;;;;0.30;100.00;103162.41;4974708;28;20097;-85
2022/02/27 08:21:39;;;;;;;21.00;11.20;;;;;;;0.36;100.00;103156.69;4939524;28;20051;-81
2022/02/27 08:24:09;;;;;;;17.77;8.70;;;;;;;0.32;100.00;103158.19;4934742;29;20043;-84
2022/02/27 08:26:35;;;;;;;20.13;10.20;;;;;;;0.41;100.00;103153.53;4955590;28;20066;-83
2022/02/27 08:29:03;;;;;;;19.23;11.20;;;;;;;0.51;100.00;103157.63;4980405;28;20050;-83
2022/02/27 08:31:29;;;;;;;22.03;12.50;;;;;;;0.48;100.00;103163.53;4973409;28;20066;-81
2022/02/27 08:33:56;;;;;;;20.07;9.47;;;;;;;0.55;100.00;103157.88;4957990;28;20516;-83
2022/02/27 08:36:23;;;;;;;22.70;11.00;;;;;;;0.59;100.00;103148.59;4981316;28;20453;-81
2022/02/27 08:38:50;;;;;;;20.80;11.40;;;;;;;0.51;100.00;103162.84;4944516;28;20105;-81
2022/02/27 08:41:17;;;;;;;23.73;9.90;;;;;;;0.70;100.00;103159.63;4942147;28;20035;-85
2022/02/27 08:43:44;;;;;;;21.17;10.17;;;;;;;0.70;100.00;103160.50;4961650;28;20074;-81
2022/02/27 08:46:10;;;;;;;19.00;9.47;;;;;;;0.67;100.00;103157.72;4973393;28;20035;-85
2022/02/27 08:48:39;;;;;;;21.50;10.87;;;;;;;0.73;100.00;103157.19;4989364;28;20596;-84
2022/02/27 08:51:06;;;;;;;36.50;12.43;;;;;;;0.60;100.00;103157.28;4973446;28;20050;-82
2022/02/27 08:53:33;;;;;;;22.90;12.33;;;;;;;0.78;100.00;103158.38;4972979;28;20042;-83
2022/02/27 08:55:59;;;;;;;25.60;12.87;;;;;;;0.89;100.00;103153.78;4940938;28;20050;-82
2022/02/27 08:58:27;;;;;;;22.63;11.53;;;;;;;0.92;100.00;103159.16;4973687;28;20098;-81
2022/02/27 09:00:54;;;;;;;26.83;12.57;;;;;;;0.95;100.00;103168.06;4973381;28;20053;-82
2022/02/27 09:03:24;;;;;;;24.43;11.70;;;;;;;0.96;100.00;103159.44;4990936;28;20058;-85
2022/02/27 09:05:52;;;;;;;22.30;11.47;;;;;;;1.06;100.00;103161.78;4961898;28;20039;-84
2022/02/27 09:08:22;;;;;;;26.47;12.30;;;;;;;1.11;100.00;103159.47;4960743;28;20066;-83
2022/02/27 09:10:49;;;;;;;26.10;13.40;;;;;;;1.24;100.00;103153.22;4961059;28;20413;-86
2022/02/27 09:13:16;;;;;;;22.23;12.13;;;;;;;1.07;100.00;103158.34;4951005;28;20047;-85
2022/02/27 09:15:43;;;;;;;30.20;13.93;;;;;;;1.22;100.00;103155.75;4977102;28;20046;-82
2022/02/27 09:18:12;;;;;;;23.27;12.33;;;;;;;1.30;100.00;103157.09;4961242;28;20054;-84
2022/02/27 09:20:39;;;;;;;23.37;11.73;;;;;;;1.34;100.00;103160.75;4975897;28;20058;-81
2022/02/27 09:23:06;;;;;;;21.53;10.50;;;;;;;1.33;100.00;103164.16;4971007;28;20058;-85
2022/02/27 09:25:36;;;;;;;22.63;11.40;;;;;;;1.52;100.00;103169.66;4974150;28;20061;-84
2022/02/27 09:28:24;;;;;;;26.87;11.77;;;;;;;1.35;100.00;103159.97;4963320;28;20047;-80
2022/02/27 09:30:50;;;;;;;22.73;11.37;;;;;;;1.44;100.00;103173.53;4940335;28;20276;-82
2022/02/27 09:33:17;;;;;;;25.40;12.13;;;;;;;1.67;100.00;103167.88;4990027;28;20039;-84
2022/02/27 09:35:44;;;;;;;17.97;10.33;;;;;;;1.54;100.00;103165.41;4960894;28;20039;-84
2022/02/27 09:38:11;;;;;;;22.10;10.13;;;;;;;1.56;100.00;103170.69;4949961;28;20190;-86
2022/02/27 09:40:37;;;;;;;20.03;11.57;;;;;;;1.63;100.00;103170.22;4956375;28;20051;-80
2022/02/27 09:43:08;;;;;;;24.40;11.87;;;;;;;1.56;100.00;103168.97;4942960;28;20409;-82
2022/02/27 09:45:36;;;;;;;23.60;13.03;;;;;;;1.78;100.00;103173.69;4943457;28;20525;-84
2022/02/27 09:48:03;;;;;;;21.93;13.07;;;;;;;1.77;100.00;103166.69;4975101;28;20601;-82
2022/02/27 09:50:30;;;;;;;22.00;11.73;;;;;;;1.63;100.00;103171.13;4956946;28;20047;-82
2022/02/27 09:52:57;;;;;;;27.93;12.60;;;;;;;1.56;100.00;103166.38;4974480;28;20043;-83
2022/02/27 09:55:23;;;;;;;21.87;12.70;;;;;;;1.63;100.00;103171.13;4974034;28;20046;-85
2022/02/27 09:57:50;;;;;;;22.33;12.83;;;;;;;1.72;100.00;103175.97;4974140;28;20046;-82
2022/02/27 10:00:18;;;;;;;21.30;12.20;;;;;;;1.85;100.00;103180.13;4973292;28;20093;-83
2022/02/27 10:03:05;;;;;;;23.40;12.47;;;;;;;2.00;100.00;103167.03;4967123;28;20567;-83
2022/02/27 10:05:34;;;;;;;29.07;12.73;;;;;;;1.75;100.00;103163.09;4968639;28;20445;-81
2022/02/27 10:08:02;;;;;;;26.20;12.93;;;;;;;1.81;100.00;103165.16;4941596;28;20480;-83
2022/02/27 10:10:30;;;;;;;23.43;12.70;;;;;;;1.80;100.00;103158.16;4946333;28;20103;-81
2022/02/27 10:12:56;;;;;;;24.03;11.97;;;;;;;1.96;100.00;103166.88;4956375;28;20046;-84
2022/02/27 10:15:23;;;;;;;20.77;13.20;;;;;;;2.08;100.00;103164.03;4971323;28;20054;-83
2022/02/27 10:17:55;;;;;;;23.30;13.23;;;;;;;2.19;100.00;103167.25;4973465;28;20046;-84
2022/02/27 10:20:24;;;;;;;25.20;12.50;;;;;;;2.26;100.00;103175.47;4939208;28;20051;-84
2022/02/27 10:22:53;;;;;;;22.03;12.00;;;;;;;2.39;100.00;103166.59;4987795;28;20129;-82
2022/02/27 10:25:26;;;;;;;22.63;10.77;;;;;;;2.17;100.00;103174.97;4959307;28;20058;-82
2022/02/27 10:27:55;;;;;;;19.93;12.37;;;;;;;2.11;100.00;103177.25;4955221;28;20510;-83
2022/02/27 10:30:50;;;;;;;24.33;11.87;;;;;;;2.13;100.00;103183.44;4938558;28;20551;-82
2022/02/27 10:33:21;;;;;;;20.63;11.83;;;;;;;2.10;100.00;103180.69;4964794;28;20474;-85
2022/02/27 10:35:53;;;;;;;23.70;12.20;;;;;;;2.21;100.00;103182.16;4954419;28;20042;-82
2022/02/27 10:41:12;;;;;;;22.63;11.20;;;;;;;2.44;100.00;103170.34;4962892;28;20573;-83
2022/02/27 10:43:43;;;;;;;20.27;10.23;;;;;;;2.56;100.00;103171.81;4965328;28;20043;-81
2022/02/27 10:46:12;;;;;;;22.17;10.67;;;;;;;2.44;100.00;103169.47;4954980;28;20498;-81
2022/02/27 10:48:39;;;;;;;22.93;11.60;;;;;;;2.42;100.00;103177.19;4953320;28;20046;-81
2022/02/27 10:51:11;;;;;;;18.97;10.33;;;;;;;2.41;100.00;103172.78;4935696;28;20085;-82
2022/02/27 10:53:42;;;;;;;21.23;11.43;;;;;;;2.46;100.00;103166.09;4938864;28;20073;-85
2022/02/27 10:56:12;;;;;;;16.90;10.27;;;;;;;2.47;100.00;103180.03;4936439;28;20593;-82
2022/02/27 10:58:43;;;;;;;58.57;40.00;;;;;;;2.58;100.00;103167.56;4938135;28;20055;-83
2022/02/27 11:01:21;;;;;;;44.70;31.87;;;;;;;2.71;100.00;103163.06;4953906;28;20065;-82
2022/02/27 11:03:50;;;;;;;31.40;21.77;;;;;;;2.63;100.00;103156.53;4945651;29;20051;-83
2022/02/27 11:06:18;;;;;;;29.53;19.97;;;;;;;2.75;100.00;103161.50;4931649;28;20035;-82
2022/02/27 11:08:46;;;;;;;19.97;12.10;;;;;;;2.77;100.00;103162.47;4955357;28;20043;-82
2022/02/27 11:11:14;;;;;;;17.87;9.93;;;;;;;2.95;100.00;103160.81;4954950;28;20050;-81
2022/02/27 11:13:45;;;;;;;16.20;9.37;;;;;;;3.02;100.00;103156.75;4973543;28;20046;-81
2022/02/27 11:16:13;;;;;;;14.77;8.77;;;;;;;3.04;100.00;103149.94;4963268;28;20042;-83
2022/02/27 11:18:41;;;;;;;16.93;8.67;;;;;;;3.06;100.00;103150.91;4971511;28;20110;-82